Search METAR Data

METAR Data for ENTO:

ENTO 241520Z 23005KT 190V290 9999 VCSH FEW024 BKN037CB 07/00 Q1007 NOSIG